Time;durP1;ratioP1;P1;durP2;ratioP2;P2;SDS_P1;SDS_P2;PMS_P1;PMS_P2;Temp;Humidity;BMP_temperature;BMP_pressure;BME280_temperature;BME280_humidity;BME280_pressure;Samples;Min_cycle;Max_cycle;Signal;HPM_P1;HPM_P2
2023/06/27 00:02:15;;;;;;;3.58;2.88;;;14.70;99.90;;;;;;5060571;28;20228;-78
2023/06/27 00:04:43;;;;;;;4.85;2.97;;;14.70;99.90;;;;;;5076374;28;20190;-77
2023/06/27 00:07:11;;;;;;;4.32;3.05;;;14.70;99.90;;;;;;5060121;28;20177;-78
2023/06/27 00:09:38;;;;;;;4.10;2.85;;;14.60;99.90;;;;;;5060437;28;20170;-77
2023/06/27 00:12:09;;;;;;;3.45;2.85;;;14.70;99.90;;;;;;5078084;28;20685;-78
2023/06/27 00:14:37;;;;;;;5.35;2.70;;;14.60;99.90;;;;;;5042432;28;20193;-77
2023/06/27 00:17:12;;;;;;;5.22;2.70;;;14.50;99.90;;;;;;5043180;28;20236;-78
2023/06/27 00:19:38;;;;;;;6.60;2.67;;;14.40;99.90;;;;;;5059631;28;20163;-78
2023/06/27 00:22:09;;;;;;;3.95;2.90;;;14.40;99.90;;;;;;5059258;28;20197;-78
2023/06/27 00:24:39;;;;;;;5.32;3.03;;;14.30;99.90;;;;;;5077608;28;20204;-78
2023/06/27 00:27:09;;;;;;;4.18;3.13;;;14.20;99.90;;;;;;5059471;28;20181;-78
2023/06/27 00:29:36;;;;;;;5.28;2.92;;;14.20;99.90;;;;;;5058723;28;20186;-78
2023/06/27 00:32:02;;;;;;;4.00;2.80;;;14.10;99.90;;;;;;5059126;28;20205;-78
2023/06/27 00:34:27;;;;;;;3.33;2.97;;;14.10;99.90;;;;;;5059108;28;20174;-78
2023/06/27 00:36:54;;;;;;;3.10;2.80;;;14.10;99.90;;;;;;5059842;28;20238;-78
2023/06/27 00:39:29;;;;;;;5.95;3.42;;;14.00;99.90;;;;;;5060446;28;20268;-77
2023/06/27 00:41:56;;;;;;;5.35;2.63;;;14.00;99.90;;;;;;5081547;28;20205;-78
2023/06/27 00:44:25;;;;;;;6.40;3.47;;;13.90;99.90;;;;;;5061069;28;20677;-78
2023/06/27 00:46:51;;;;;;;5.43;3.10;;;13.80;99.90;;;;;;5060179;28;20227;-78
2023/06/27 00:49:20;;;;;;;6.88;2.80;;;13.80;99.90;;;;;;5059666;28;20174;-78
2023/06/27 00:51:57;;;;;;;3.40;2.95;;;13.80;99.90;;;;;;5058967;28;20193;-78
2023/06/27 00:54:26;;;;;;;4.47;2.97;;;13.80;99.90;;;;;;5058806;28;20272;-78
2023/06/27 00:56:53;;;;;;;3.10;2.80;;;13.70;99.90;;;;;;5058726;28;20231;-78
2023/06/27 00:59:20;;;;;;;5.38;3.08;;;13.70;99.90;;;;;;5038693;28;20190;-78
2023/06/27 01:01:47;;;;;;;3.47;2.60;;;13.80;99.90;;;;;;5037970;28;20212;-78
2023/06/27 01:04:14;;;;;;;3.55;2.72;;;13.80;99.90;;;;;;5021438;28;20214;-78
2023/06/27 01:06:49;;;;;;;3.58;2.70;;;13.80;99.90;;;;;;5038643;28;20592;-77
2023/06/27 01:09:27;;;;;;;3.33;2.75;;;13.70;99.90;;;;;;5038587;28;20173;-78
2023/06/27 01:12:11;;;;;;;4.18;3.08;;;13.60;99.90;;;;;;5038502;28;20570;-78
2023/06/27 01:14:41;;;;;;;4.15;3.10;;;13.60;99.90;;;;;;5037302;28;20689;-78
2023/06/27 01:17:08;;;;;;;6.18;3.45;;;13.60;99.90;;;;;;5055740;28;20163;-78
2023/06/27 01:19:36;;;;;;;4.88;2.80;;;13.60;99.90;;;;;;5020979;28;20193;-78
2023/06/27 01:22:08;;;;;;;6.32;3.40;;;13.50;99.90;;;;;;5039137;28;20198;-78
2023/06/27 01:24:37;;;;;;;6.60;3.50;;;13.50;99.90;;;;;;5054959;28;20206;-78
2023/06/27 01:27:05;;;;;;;6.15;3.20;;;13.40;99.90;;;;;;5054461;28;20169;-78
2023/06/27 01:29:32;;;;;;;5.10;3.65;;;13.40;99.90;;;;;;5072952;28;20285;-78
2023/06/27 01:32:16;;;;;;;3.88;2.72;;;13.40;99.90;;;;;;5057644;28;20276;-78
2023/06/27 01:34:57;;;;;;;4.38;3.15;;;13.40;99.90;;;;;;5075948;28;20532;-78
2023/06/27 01:37:32;;;;;;;5.00;3.20;;;13.40;99.90;;;;;;5075233;28;20169;-78
2023/06/27 01:40:08;;;;;;;5.85;3.13;;;13.30;99.90;;;;;;5057490;28;20214;-78
2023/06/27 01:42:46;;;;;;;4.75;3.13;;;13.30;99.90;;;;;;5075161;28;20201;-78
2023/06/27 01:45:14;;;;;;;4.20;3.10;;;13.30;99.90;;;;;;5057331;28;20234;-78
2023/06/27 01:47:43;;;;;;;3.70;3.28;;;13.20;99.90;;;;;;5057268;28;20174;-77
2023/06/27 01:50:10;;;;;;;5.95;3.40;;;13.20;99.90;;;;;;5056458;28;20259;-78
2023/06/27 01:52:42;;;;;;;6.05;3.13;;;13.20;99.90;;;;;;5057020;28;20201;-78
2023/06/27 01:55:09;;;;;;;4.93;3.28;;;13.10;99.90;;;;;;5056987;28;20646;-78
2023/06/27 01:57:35;;;;;;;4.38;3.38;;;13.10;99.90;;;;;;5057052;28;20193;-78
2023/06/27 02:00:02;;;;;;;3.20;2.90;;;13.10;99.90;;;;;;5056738;28;20177;-78
2023/06/27 02:02:29;;;;;;;7.75;3.42;;;13.10;99.90;;;;;;5057120;28;20205;-78
2023/06/27 02:04:56;;;;;;;4.85;3.03;;;13.10;99.90;;;;;;5056915;28;20223;-78
2023/06/27 02:07:22;;;;;;;4.13;2.92;;;13.20;99.90;;;;;;5040463;28;20189;-78
2023/06/27 02:09:48;;;;;;;4.03;3.00;;;13.20;99.90;;;;;;5055915;28;20273;-78
2023/06/27 02:12:17;;;;;;;6.38;3.53;;;13.20;99.90;;;;;;5056970;28;20197;-78
2023/06/27 02:14:45;;;;;;;3.78;3.17;;;13.30;99.90;;;;;;5056135;28;20194;-78
2023/06/27 02:17:11;;;;;;;3.40;3.10;;;13.30;99.90;;;;;;5056752;28;20205;-78
2023/06/27 02:19:38;;;;;;;5.53;3.03;;;13.30;99.90;;;;;;5056228;28;20173;-78
2023/06/27 02:22:04;;;;;;;4.80;3.28;;;13.30;99.90;;;;;;5039910;28;20213;-78
2023/06/27 02:24:33;;;;;;;3.88;3.05;;;13.30;99.90;;;;;;5056000;28;20205;-77
2023/06/27 02:26:59;;;;;;;6.47;3.13;;;13.20;99.90;;;;;;5056211;28;20316;-78
2023/06/27 02:29:25;;;;;;;5.88;2.95;;;13.10;99.90;;;;;;5055958;28;20178;-78
2023/06/27 02:31:51;;;;;;;4.10;3.13;;;13.10;99.90;;;;;;5074244;28;20196;-78
2023/06/27 02:34:20;;;;;;;4.97;3.25;;;13.00;99.90;;;;;;5039488;28;20186;-78
2023/06/27 02:36:46;;;;;;;3.63;3.15;;;13.00;99.90;;;;;;5056265;28;20188;-78
2023/06/27 02:39:16;;;;;;;4.53;3.38;;;13.00;99.90;;;;;;5074155;28;20182;-78
2023/06/27 02:41:45;;;;;;;5.13;3.25;;;13.00;99.90;;;;;;5056209;28;20198;-78
2023/06/27 02:44:11;;;;;;;4.30;3.28;;;12.90;99.90;;;;;;5056151;28;20209;-78
2023/06/27 02:46:37;;;;;;;5.05;3.47;;;12.80;99.90;;;;;;5074088;28;20177;-78
2023/06/27 02:49:16;;;;;;;5.38;3.53;;;12.70;99.90;;;;;;5055665;28;20177;-78
2023/06/27 02:51:43;;;;;;;3.88;3.17;;;12.80;99.90;;;;;;5056108;28;20194;-78
2023/06/27 02:54:17;;;;;;;4.22;3.25;;;12.80;99.90;;;;;;5074080;28;20180;-78
2023/06/27 02:56:47;;;;;;;5.05;3.50;;;12.80;99.90;;;;;;5055927;28;20243;-78
2023/06/27 02:59:18;;;;;;;4.72;3.60;;;12.70;99.90;;;;;;5055709;28;20185;-78
2023/06/27 03:01:44;;;;;;;3.50;3.20;;;12.70;99.90;;;;;;5055798;28;20233;-78
2023/06/27 03:04:10;;;;;;;10.52;4.30;;;12.70;99.90;;;;;;5055097;28;20251;-78
2023/06/27 03:06:37;;;;;;;4.50;3.65;;;12.60;99.90;;;;;;5038870;28;20189;-78
2023/06/27 03:09:03;;;;;;;4.78;3.60;;;12.60;99.90;;;;;;5055734;28;20178;-78
2023/06/27 03:11:32;;;;;;;4.75;3.70;;;12.80;99.90;;;;;;5055796;28;20205;-78
2023/06/27 03:14:01;;;;;;;4.50;3.53;;;12.80;99.90;;;;;;5055009;28;20383;-78
2023/06/27 03:16:27;;;;;;;4.53;3.60;;;12.80;99.90;;;;;;5056000;28;20182;-78
2023/06/27 03:18:54;;;;;;;7.90;4.53;;;12.80;99.90;;;;;;5073455;28;20198;-78
2023/06/27 03:21:25;;;;;;;8.02;3.78;;;12.90;99.90;;;;;;5038888;28;20201;-78
2023/06/27 03:23:52;;;;;;;4.57;3.78;;;12.90;99.90;;;;;;5053944;28;20212;-77
2023/06/27 03:26:23;;;;;;;6.53;3.88;;;12.90;99.90;;;;;;5035301;28;20188;-77
2023/06/27 03:28:49;;;;;;;7.07;3.88;;;13.00;99.90;;;;;;5047351;28;20189;-78
2023/06/27 03:31:19;;;;;;;5.60;3.97;;;13.00;99.90;;;;;;5055835;28;20226;-78
2023/06/27 03:33:46;;;;;;;7.75;3.70;;;13.10;99.90;;;;;;5073463;28;20192;-78
2023/06/27 03:36:12;;;;;;;5.47;3.50;;;13.10;99.90;;;;;;5073674;28;20174;-77
2023/06/27 03:38:38;;;;;;;6.13;3.90;;;13.20;99.90;;;;;;5073658;28;20178;-77
2023/06/27 03:41:03;;;;;;;6.40;4.00;;;13.20;99.90;;;;;;5073766;28;20190;-78
2023/06/27 03:43:29;;;;;;;5.15;3.72;;;13.10;99.90;;;;;;5055234;28;20202;-78
2023/06/27 03:45:55;;;;;;;8.50;4.00;;;13.20;99.90;;;;;;5055880;28;20247;-78
2023/06/27 03:48:21;;;;;;;6.03;4.40;;;13.20;99.90;;;;;;5036025;23;20238;-85
2023/06/27 03:50:46;;;;;;;7.13;3.58;;;13.30;99.90;;;;;;5018222;28;20179;-85
2023/06/27 03:53:12;;;;;;;8.38;4.43;;;13.30;99.90;;;;;;5018529;28;20660;-85
2023/06/27 03:55:40;;;;;;;4.38;3.67;;;13.40;99.90;;;;;;5036635;28;20179;-85
2023/06/27 03:58:06;;;;;;;5.63;3.63;;;13.40;99.90;;;;;;5036503;28;20197;-85
2023/06/27 04:00:32;;;;;;;7.18;4.15;;;13.50;99.90;;;;;;5019099;28;20230;-85
2023/06/27 04:02:58;;;;;;;7.03;4.38;;;13.40;99.90;;;;;;5036266;28;20203;-85
2023/06/27 04:05:24;;;;;;;8.50;4.13;;;13.40;99.90;;;;;;5018865;28;20237;-85
2023/06/27 04:07:50;;;;;;;6.07;4.10;;;13.40;99.90;;;;;;5018650;28;20191;-85
2023/06/27 04:10:18;;;;;;;8.98;3.97;;;13.40;99.90;;;;;;5036017;28;20175;-85
2023/06/27 04:12:44;;;;;;;6.45;4.00;;;13.50;99.90;;;;;;5018629;28;20648;-84
2023/06/27 04:15:10;;;;;;;6.75;4.00;;;13.50;99.90;;;;;;5022883;28;20203;-84
2023/06/27 04:17:35;;;;;;;6.15;4.05;;;13.60;99.90;;;;;;5023072;28;20190;-84
2023/06/27 04:20:02;;;;;;;7.28;4.65;;;13.60;99.90;;;;;;5024284;28;20640;-84
2023/06/27 04:22:27;;;;;;;9.73;3.65;;;13.70;99.90;;;;;;5041557;28;20641;-84
2023/06/27 04:24:53;;;;;;;8.45;4.70;;;13.80;99.90;;;;;;5042227;28;20194;-84
2023/06/27 04:27:19;;;;;;;6.13;3.53;;;13.80;99.90;;;;;;5025043;28;20172;-84
2023/06/27 04:29:44;;;;;;;5.43;4.53;;;13.90;99.90;;;;;;5041335;28;20194;-84
2023/06/27 04:32:10;;;;;;;8.32;4.20;;;13.90;99.90;;;;;;5023314;28;20644;-84
2023/06/27 04:34:36;;;;;;;8.85;4.63;;;14.00;99.90;;;;;;5040362;28;20246;-84
2023/06/27 04:37:05;;;;;;;9.93;4.60;;;14.00;99.90;;;;;;5022761;28;20269;-84
2023/06/27 04:39:31;;;;;;;6.75;4.07;;;14.00;99.90;;;;;;5040724;28;20179;-84
2023/06/27 04:41:57;;;;;;;6.10;4.28;;;14.00;99.90;;;;;;5023227;28;20182;-84
2023/06/27 04:44:23;;;;;;;7.35;4.57;;;14.10;99.90;;;;;;5022797;28;20706;-84
2023/06/27 04:46:49;;;;;;;8.43;4.40;;;14.10;99.90;;;;;;5023233;28;20183;-84
2023/06/27 04:49:15;;;;;;;9.50;5.00;;;14.20;99.90;;;;;;5022754;28;20238;-84
2023/06/27 04:51:40;;;;;;;7.20;4.47;;;14.30;99.90;;;;;;5023071;28;20229;-84
2023/06/27 04:54:06;;;;;;;6.57;4.47;;;14.30;99.90;;;;;;5041161;28;20218;-84
2023/06/27 04:56:33;;;;;;;7.85;4.40;;;14.40;99.90;;;;;;5022777;28;20739;-84
2023/06/27 04:58:59;;;;;;;6.05;4.40;;;14.50;99.90;;;;;;5022944;28;20183;-84
2023/06/27 05:01:25;;;;;;;6.68;4.05;;;14.60;99.90;;;;;;5023099;28;20179;-84
2023/06/27 05:03:52;;;;;;;7.70;4.35;;;14.60;99.90;;;;;;5022759;28;20301;-84
2023/06/27 05:06:18;;;;;;;7.95;4.57;;;14.70;99.90;;;;;;5023042;28;20259;-84
2023/06/27 05:08:44;;;;;;;6.63;3.67;;;14.80;99.90;;;;;;5023217;28;20214;-84
2023/06/27 05:11:10;;;;;;;8.30;4.38;;;14.90;99.90;;;;;;5023212;28;20211;-84
2023/06/27 05:13:36;;;;;;;6.18;4.40;;;15.00;99.90;;;;;;5022950;28;20206;-84
2023/06/27 05:16:02;;;;;;;6.80;4.32;;;15.20;99.90;;;;;;5022507;28;20175;-84
2023/06/27 05:18:28;;;;;;;8.43;4.30;;;15.30;99.90;;;;;;5022240;28;20185;-84
2023/06/27 05:20:54;;;;;;;11.40;4.50;;;15.40;99.90;;;;;;5040498;28;20262;-84
2023/06/27 05:23:21;;;;;;;8.20;4.35;;;15.50;99.90;;;;;;5022315;28;20195;-84
2023/06/27 05:25:48;;;;;;;9.75;4.63;;;15.50;99.90;;;;;;5022023;28;20179;-84
2023/06/27 05:28:14;;;;;;;61.50;37.85;;;15.60;99.90;;;;;;5039444;28;20175;-84
2023/06/27 05:30:39;;;;;;;11.13;5.53;;;15.70;99.90;;;;;;5021219;28;20183;-84
2023/06/27 05:33:05;;;;;;;7.57;4.47;;;15.70;99.90;;;;;;5038554;28;20175;-84
2023/06/27 05:35:31;;;;;;;12.63;6.88;;;15.80;99.90;;;;;;5039798;28;20257;-84
2023/06/27 05:37:58;;;;;;;8.35;4.57;;;15.90;99.90;;;;;;5021796;28;20179;-84
2023/06/27 05:40:24;;;;;;;10.48;4.60;;;16.00;99.90;;;;;;5021143;28;20187;-84
2023/06/27 05:42:50;;;;;;;10.25;4.70;;;16.10;99.90;;;;;;5021512;28;20205;-84
2023/06/27 05:45:15;;;;;;;9.05;5.15;;;16.30;99.90;;;;;;5021941;28;20234;-84
2023/06/27 05:47:42;;;;;;;10.07;5.03;;;16.30;99.90;;;;;;5023244;28;20191;-84
2023/06/27 05:50:09;;;;;;;14.20;5.03;;;16.40;99.90;;;;;;5039975;28;20167;-84
2023/06/27 05:52:35;;;;;;;12.77;5.28;;;16.40;99.90;;;;;;5039676;28;20187;-84
2023/06/27 05:55:01;;;;;;;16.50;5.35;;;16.60;99.90;;;;;;5022817;28;20199;-84
2023/06/27 05:57:26;;;;;;;9.82;4.57;;;16.70;99.90;;;;;;5044092;28;20230;-84
2023/06/27 05:59:52;;;;;;;10.23;4.63;;;16.80;99.90;;;;;;5044004;28;20181;-84
2023/06/27 06:02:18;;;;;;;7.47;4.15;;;16.80;99.90;;;;;;5042823;28;20173;-84
2023/06/27 06:04:44;;;;;;;12.15;4.90;;;16.80;99.90;;;;;;5024725;28;20246;-84
2023/06/27 06:07:10;;;;;;;12.80;5.05;;;16.90;99.90;;;;;;5041963;28;20182;-84
2023/06/27 06:09:35;;;;;;;10.80;4.47;;;17.00;99.90;;;;;;5040754;28;20636;-85
2023/06/27 06:12:01;;;;;;;12.02;4.88;;;17.00;99.90;;;;;;5021433;28;20189;-83
2023/06/27 06:14:27;;;;;;;10.18;4.40;;;17.10;99.90;;;;;;5022430;28;20245;-84
2023/06/27 06:16:53;;;;;;;12.15;6.95;;;17.20;99.90;;;;;;5023922;28;20190;-85
2023/06/27 06:19:19;;;;;;;9.70;4.72;;;17.20;99.90;;;;;;5020506;28;20607;-84
2023/06/27 06:21:45;;;;;;;13.82;5.18;;;17.20;99.90;;;;;;5019672;28;20274;-84
2023/06/27 06:24:14;;;;;;;24.05;16.65;;;17.20;99.90;;;;;;5038140;28;20289;-83
2023/06/27 06:26:39;;;;;;;17.80;9.35;;;17.20;99.90;;;;;;5019577;28;20214;-84
2023/06/27 06:29:08;;;;;;;11.85;5.68;;;17.20;99.90;;;;;;5037854;28;20171;-84
2023/06/27 06:31:34;;;;;;;12.23;5.70;;;17.30;99.90;;;;;;5019872;28;20179;-83
2023/06/27 06:34:00;;;;;;;15.48;5.15;;;17.30;99.90;;;;;;5019957;28;20211;-84
2023/06/27 06:36:25;;;;;;;12.55;5.10;;;17.30;99.90;;;;;;5018622;28;20253;-83
2023/06/27 06:38:51;;;;;;;10.13;4.85;;;17.30;99.90;;;;;;5037044;28;20207;-83
2023/06/27 06:41:18;;;;;;;18.23;5.78;;;17.20;99.90;;;;;;5019118;28;20197;-84
2023/06/27 06:43:44;;;;;;;17.23;5.60;;;17.10;99.90;;;;;;5036881;28;20209;-84
2023/06/27 06:46:10;;;;;;;14.82;5.72;;;17.10;99.90;;;;;;5036990;28;20187;-84
2023/06/27 06:48:36;;;;;;;12.55;5.03;;;17.10;99.90;;;;;;5018779;28;20195;-84
2023/06/27 06:51:02;;;;;;;15.52;5.05;;;17.00;99.90;;;;;;5018109;28;20183;-84
2023/06/27 06:53:28;;;;;;;16.20;5.40;;;16.80;99.90;;;;;;5018883;28;20199;-84
2023/06/27 06:55:53;;;;;;;18.70;6.68;;;16.70;99.90;;;;;;5019544;28;20225;-84
2023/06/27 06:58:19;;;;;;;16.02;4.93;;;16.80;99.90;;;;;;5020826;28;20183;-84
2023/06/27 07:00:45;;;;;;;13.63;5.47;;;16.90;99.90;;;;;;5019072;28;20264;-84
2023/06/27 07:03:10;;;;;;;12.98;5.10;;;16.90;99.90;;;;;;5018895;28;20229;-85
2023/06/27 07:05:37;;;;;;;16.90;5.63;;;17.00;99.90;;;;;;5019241;28;20233;-84
2023/06/27 07:08:06;;;;;;;12.93;5.40;;;17.10;99.90;;;;;;5036770;28;20171;-84
2023/06/27 07:10:32;;;;;;;18.13;7.18;;;17.00;99.90;;;;;;5018924;28;20175;-84
2023/06/27 07:12:59;;;;;;;19.38;8.88;;;17.00;99.90;;;;;;5019081;28;20628;-83
2023/06/27 07:15:26;;;;;;;17.40;6.30;;;16.90;99.90;;;;;;5019154;28;20209;-84
2023/06/27 07:17:52;;;;;;;14.90;6.25;;;16.90;99.90;;;;;;5019293;28;20179;-84
2023/06/27 07:20:19;;;;;;;16.83;5.90;;;16.90;99.90;;;;;;5018653;28;20175;-84
2023/06/27 07:22:46;;;;;;;13.07;5.05;;;16.90;99.90;;;;;;5036325;28;20324;-84
2023/06/27 07:25:11;;;;;;;29.60;8.18;;;17.00;99.90;;;;;;5036442;28;20679;-84
2023/06/27 07:27:37;;;;;;;59.92;16.70;;;17.20;99.90;;;;;;5018426;28;20187;-84
2023/06/27 07:30:03;;;;;;;17.05;6.00;;;17.20;99.90;;;;;;5018167;28;20229;-84
2023/06/27 07:32:29;;;;;;;72.50;20.70;;;17.10;99.90;;;;;;5019085;28;20663;-84
2023/06/27 07:34:55;;;;;;;67.07;22.00;;;17.20;99.90;;;;;;5019441;28;20203;-85
2023/06/27 07:37:20;;;;;;;112.15;34.72;;;17.10;99.90;;;;;;5018501;28;20211;-85
2023/06/27 07:39:46;;;;;;;28.63;9.70;;;17.20;99.90;;;;;;5019526;28;20175;-84
2023/06/27 07:42:12;;;;;;;25.00;7.95;;;17.10;99.90;;;;;;5038733;28;20175;-84
2023/06/27 07:44:38;;;;;;;81.32;26.88;;;17.20;99.90;;;;;;5019887;28;20253;-85
2023/06/27 07:47:03;;;;;;;220.50;64.00;;;17.30;99.90;;;;;;5018950;28;20855;-85
2023/06/27 07:49:31;;;;;;;34.17;11.93;;;17.30;99.90;;;;;;5021394;28;20317;-84
2023/06/27 07:51:57;;;;;;;13.93;6.15;;;17.30;99.90;;;;;;5039710;28;20171;-84
2023/06/27 07:54:26;;;;;;;16.50;6.57;;;17.50;99.90;;;;;;5023181;28;20234;-86
2023/06/27 07:56:54;;;;;;;21.98;8.00;;;17.60;99.90;;;;;;5025291;28;20247;-86
2023/06/27 07:59:39;;;;;;;25.63;12.77;;;17.80;99.90;;;;;;5028878;28;20190;-86
2023/06/27 08:02:05;;;;;;;15.55;6.38;;;18.10;99.90;;;;;;5027304;28;20175;-87
2023/06/27 08:04:35;;;;;;;18.33;6.10;;;18.20;99.90;;;;;;5043303;28;20246;-86
2023/06/27 08:07:04;;;;;;;17.83;6.38;;;18.40;99.90;;;;;;5028154;28;20198;-87
2023/06/27 08:09:32;;;;;;;16.30;5.25;;;18.50;99.90;;;;;;5032778;28;20175;-85
2023/06/27 08:11:58;;;;;;;15.38;5.10;;;18.60;99.90;;;;;;5039804;28;20223;-85
2023/06/27 08:14:33;;;;;;;10.27;4.88;;;18.70;99.90;;;;;;5058052;28;20225;-86
2023/06/27 08:16:59;;;;;;;12.07;5.50;;;18.90;99.90;;;;;;5040501;28;20178;-86
2023/06/27 08:19:26;;;;;;;13.10;5.60;;;19.10;99.90;;;;;;5034420;28;20175;-85
2023/06/27 08:21:53;;;;;;;18.65;5.55;;;19.20;99.90;;;;;;5044483;28;20186;-85
2023/06/27 08:24:19;;;;;;;12.65;5.35;;;19.20;99.90;;;;;;5025723;28;20613;-84
2023/06/27 08:26:49;;;;;;;16.38;5.63;;;19.40;99.90;;;;;;5025525;28;20182;-85
2023/06/27 08:29:15;;;;;;;11.85;4.95;;;19.40;99.90;;;;;;5027840;28;20175;-82
2023/06/27 08:31:41;;;;;;;15.07;5.15;;;19.40;99.90;;;;;;5043985;28;20190;-85
2023/06/27 08:34:07;;;;;;;17.52;5.63;;;19.40;99.90;;;;;;5025817;28;20203;-84
2023/06/27 08:36:32;;;;;;;13.82;4.75;;;19.40;99.90;;;;;;5023383;28;20179;-85
2023/06/27 08:38:58;;;;;;;14.15;4.53;;;19.50;99.90;;;;;;5024285;28;20668;-83
2023/06/27 08:41:24;;;;;;;13.45;4.53;;;19.60;99.90;;;;;;5046478;28;20191;-83
2023/06/27 08:43:50;;;;;;;12.05;4.32;;;19.80;99.90;;;;;;5027509;28;20214;-82
2023/06/27 08:46:20;;;;;;;12.55;4.63;;;19.80;99.90;;;;;;5043838;28;20173;-82
2023/06/27 08:48:47;;;;;;;14.48;4.65;;;19.80;99.90;;;;;;5025744;28;20187;-82
2023/06/27 08:51:18;;;;;;;14.27;4.68;;;19.80;99.90;;;;;;5043922;28;20225;-82
2023/06/27 08:53:48;;;;;;;11.02;4.30;;;19.90;99.90;;;;;;5024082;28;20195;-82
2023/06/27 08:56:17;;;;;;;9.65;3.92;;;20.00;99.90;;;;;;5026483;28;20206;-85
2023/06/27 08:58:55;;;;;;;13.63;3.83;;;20.00;99.90;;;;;;5025671;28;20643;-85
2023/06/27 09:01:25;;;;;;;10.90;3.70;;;20.20;99.90;;;;;;5024664;28;20186;-85
2023/06/27 09:03:52;;;;;;;9.30;3.97;;;20.20;99.90;;;;;;5025618;28;20276;-82
2023/06/27 09:06:19;;;;;;;14.35;4.10;;;20.10;99.90;;;;;;5027963;28;20201;-83
2023/06/27 09:08:44;;;;;;;11.48;4.00;;;20.30;99.90;;;;;;5025625;28;20205;-85
2023/06/27 09:11:10;;;;;;;10.70;3.85;;;20.60;99.90;;;;;;5042840;28;20695;-83
2023/06/27 09:13:39;;;;;;;11.80;4.00;;;20.70;99.90;;;;;;5033802;23;20317;-77
2023/06/27 09:16:05;;;;;;;8.65;3.30;;;20.80;99.90;;;;;;5060865;28;20239;-77
2023/06/27 09:18:33;;;;;;;9.88;3.22;;;20.90;99.90;;;;;;5043677;28;20218;-77
2023/06/27 09:21:00;;;;;;;10.50;3.45;;;20.90;99.90;;;;;;5061181;28;20611;-76
2023/06/27 09:23:28;;;;;;;8.85;3.25;;;21.00;99.90;;;;;;5061681;28;20785;-77
2023/06/27 09:26:11;;;;;;;8.95;3.30;;;21.10;99.90;;;;;;5057807;28;20611;-77
2023/06/27 09:28:48;;;;;;;9.40;3.47;;;21.30;99.90;;;;;;5038370;28;20682;-77
2023/06/27 09:31:16;;;;;;;6.40;3.13;;;21.60;99.90;;;;;;5056369;28;20387;-77
2023/06/27 09:33:43;;;;;;;6.93;3.22;;;21.70;99.90;;;;;;5038695;28;20297;-77
2023/06/27 09:36:09;;;;;;;11.02;4.00;;;21.60;99.90;;;;;;5057127;28;20171;-76
2023/06/27 09:38:35;;;;;;;10.95;3.42;;;21.50;99.90;;;;;;5039905;28;20225;-77
2023/06/27 09:41:08;;;;;;;10.77;3.70;;;21.50;99.90;;;;;;5057246;28;20548;-77
2023/06/27 09:43:35;;;;;;;9.38;3.13;;;21.70;99.90;;;;;;5038894;28;20206;-77
2023/06/27 09:46:02;;;;;;;9.10;3.58;;;21.70;99.90;;;;;;5055849;28;20171;-76
2023/06/27 09:48:29;;;;;;;10.30;3.10;;;21.50;99.90;;;;;;5037454;28;20666;-76
2023/06/27 09:51:03;;;;;;;9.57;2.88;;;21.40;99.90;;;;;;5055340;28;20190;-76
2023/06/27 09:53:30;;;;;;;8.77;2.95;;;21.20;99.90;;;;;;5037497;28;20658;-76
2023/06/27 09:55:57;;;;;;;7.10;3.50;;;21.00;99.90;;;;;;5037328;28;20224;-76
2023/06/27 09:58:29;;;;;;;11.30;3.70;;;20.90;99.90;;;;;;5055260;28;20198;-76
2023/06/27 10:01:04;;;;;;;11.68;3.67;;;20.80;99.90;;;;;;5054870;28;20177;-76
2023/06/27 10:03:30;;;;;;;11.75;3.47;;;20.50;99.90;;;;;;5055086;28;20186;-76
2023/06/27 10:05:56;;;;;;;12.30;3.72;;;20.50;99.90;;;;;;5054842;28;20186;-76
2023/06/27 10:08:22;;;;;;;11.73;4.28;;;20.40;99.90;;;;;;5055098;28;20213;-77
2023/06/27 10:10:49;;;;;;;10.45;3.70;;;20.30;99.90;;;;;;5036454;28;20639;-77
2023/06/27 10:13:15;;;;;;;8.13;3.55;;;20.50;99.90;;;;;;5036828;28;20183;-76
2023/06/27 10:15:41;;;;;;;6.13;3.40;;;20.60;99.90;;;;;;5054787;28;20181;-75
2023/06/27 10:18:07;;;;;;;6.18;3.25;;;20.80;99.90;;;;;;5054911;28;20233;-77
2023/06/27 10:20:33;;;;;;;8.63;3.50;;;21.10;99.90;;;;;;5055053;28;20151;-76
2023/06/27 10:22:59;;;;;;;6.88;3.25;;;21.50;99.90;;;;;;5054716;28;20236;-76
2023/06/27 10:25:26;;;;;;;7.38;3.70;;;21.50;99.90;;;;;;5054965;28;20171;-76
2023/06/27 10:28:07;;;;;;;10.23;3.38;;;21.40;99.90;;;;;;5055295;28;20229;-76
2023/06/27 10:30:37;;;;;;;7.50;3.30;;;21.30;99.90;;;;;;5054904;28;20161;-76
2023/06/27 10:33:20;;;;;;;12.95;3.72;;;21.20;99.90;;;;;;5055172;28;20171;-77
2023/06/27 10:35:56;;;;;;;9.88;3.33;;;20.90;99.90;;;;;;5036185;28;20603;-77
2023/06/27 10:38:22;;;;;;;7.63;3.67;;;20.80;99.90;;;;;;5054474;28;20711;-76
2023/06/27 10:40:59;;;;;;;7.18;3.28;;;20.80;99.90;;;;;;5036366;28;20182;-76
2023/06/27 10:43:47;;;;;;;9.48;3.90;;;20.90;99.90;;;;;;5054289;28;20213;-76
2023/06/27 10:46:24;;;;;;;10.52;3.65;;;20.80;99.90;;;;;;5053958;28;20171;-76
2023/06/27 10:49:02;;;;;;;7.57;3.40;;;21.10;99.90;;;;;;5054461;28;20221;-77
2023/06/27 10:51:41;;;;;;;8.38;3.85;;;21.20;99.90;;;;;;5053952;28;20178;-77
2023/06/27 10:54:07;;;;;;;8.77;3.10;;;21.10;99.90;;;;;;5053793;28;20177;-77
2023/06/27 10:56:37;;;;;;;7.40;3.65;;;21.20;99.90;;;;;;5036193;28;20639;-76
2023/06/27 10:59:13;;;;;;;12.30;3.75;;;21.40;99.90;;;;;;5053656;28;20202;-76
2023/06/27 11:02:04;;;;;;;8.35;3.60;;;21.50;99.90;;;;;;5035649;28;20181;-76
2023/06/27 11:04:42;;;;;;;10.85;3.63;;;21.40;99.90;;;;;;5029468;28;20760;-72
2023/06/27 11:07:13;;;;;;;7.60;3.42;;;21.10;99.90;;;;;;5055797;28;20253;-74
2023/06/27 11:09:51;;;;;;;8.02;4.20;;;20.90;99.90;;;;;;5057591;28;20593;-74
2023/06/27 11:12:17;;;;;;;9.48;3.40;;;21.00;99.90;;;;;;5057509;28;20202;-73
2023/06/27 11:14:45;;;;;;;9.00;3.92;;;21.00;99.90;;;;;;5036493;28;20228;-74
2023/06/27 11:17:12;;;;;;;7.05;3.92;;;21.00;99.90;;;;;;5036247;28;20199;-74
2023/06/27 11:19:40;;;;;;;7.13;3.67;;;21.10;99.90;;;;;;5035888;28;20166;-74
2023/06/27 11:22:07;;;;;;;6.88;3.40;;;21.20;99.90;;;;;;5054612;28;20183;-74
2023/06/27 11:24:33;;;;;;;10.35;3.67;;;21.50;99.90;;;;;;5039809;28;20221;-74
2023/06/27 11:27:00;;;;;;;8.57;3.03;;;21.70;99.90;;;;;;5040111;28;20179;-74
2023/06/27 11:29:27;;;;;;;6.65;3.40;;;21.80;99.90;;;;;;5057414;28;20181;-73
2023/06/27 11:31:54;;;;;;;7.70;3.53;;;21.90;99.90;;;;;;5058076;28;20224;-74
2023/06/27 11:34:20;;;;;;;6.43;3.50;;;21.80;99.90;;;;;;5039868;28;20178;-73
2023/06/27 11:36:46;;;;;;;8.20;3.45;;;21.60;99.90;;;;;;5039743;28;20205;-74
2023/06/27 11:39:15;;;;;;;8.32;3.45;;;21.60;99.90;;;;;;5039882;28;20209;-74
2023/06/27 11:41:43;;;;;;;7.13;3.53;;;21.60;99.90;;;;;;5057967;28;20170;-74
2023/06/27 11:44:17;;;;;;;11.02;3.63;;;21.70;99.90;;;;;;5057472;28;20303;-74
2023/06/27 11:46:51;;;;;;;8.20;3.35;;;21.70;99.90;;;;;;5039318;28;20177;-74
2023/06/27 11:49:20;;;;;;;6.72;3.42;;;21.60;99.90;;;;;;5057534;28;20163;-74
2023/06/27 11:51:46;;;;;;;8.38;3.50;;;21.40;99.90;;;;;;5040098;28;20654;-74
2023/06/27 11:54:16;;;;;;;8.93;3.80;;;21.30;99.90;;;;;;5057451;28;20186;-74
2023/06/27 11:56:42;;;;;;;17.48;4.55;;;21.10;99.90;;;;;;5057639;28;20163;-74
2023/06/27 11:59:08;;;;;;;9.77;3.63;;;21.10;99.90;;;;;;5039062;28;20677;-74
2023/06/27 12:01:44;;;;;;;7.90;3.53;;;21.20;99.90;;;;;;5056976;28;20178;-74
2023/06/27 12:04:15;;;;;;;7.97;3.10;;;21.50;99.90;;;;;;5039328;28;20252;-74
2023/06/27 12:06:43;;;;;;;8.40;3.33;;;21.70;99.90;;;;;;5039206;28;20182;-75
2023/06/27 12:09:24;;;;;;;7.97;3.15;;;22.10;99.90;;;;;;5057395;28;20182;-75
2023/06/27 12:11:58;;;;;;;9.07;2.97;;;22.40;99.90;;;;;;5039187;28;20265;-74
2023/06/27 12:14:26;;;;;;;4.60;2.85;;;22.70;99.90;;;;;;5039131;28;20555;-74
2023/06/27 12:16:53;;;;;;;9.75;3.05;;;22.80;99.90;;;;;;5038645;28;20281;-74
2023/06/27 12:19:20;;;;;;;5.47;2.53;;;23.00;99.90;;;;;;5057221;28;20174;-74
2023/06/27 12:21:47;;;;;;;8.10;2.65;;;23.10;99.90;;;;;;5057385;28;20209;-74
2023/06/27 12:24:13;;;;;;;8.48;3.15;;;22.90;99.90;;;;;;5057938;28;20199;-73
2023/06/27 12:26:39;;;;;;;7.43;2.88;;;22.90;99.90;;;;;;5039311;28;20175;-73
2023/06/27 12:29:07;;;;;;;6.45;2.45;;;23.00;99.90;;;;;;5056719;28;20195;-74
2023/06/27 12:31:35;;;;;;;7.55;2.97;;;23.10;99.90;;;;;;5038923;28;20196;-73
2023/06/27 12:34:01;;;;;;;7.90;3.22;;;23.20;99.90;;;;;;5056177;28;20178;-73
2023/06/27 12:36:27;;;;;;;7.10;2.80;;;23.20;99.90;;;;;;5039030;28;20185;-73
2023/06/27 12:38:56;;;;;;;7.05;3.38;;;23.00;99.90;;;;;;5056455;28;20205;-73
2023/06/27 12:41:23;;;;;;;7.65;3.58;;;23.00;99.90;;;;;;5038788;28;20185;-73
2023/06/27 12:43:49;;;;;;;6.07;3.30;;;22.90;99.90;;;;;;5057446;28;20596;-73
2023/06/27 12:46:15;;;;;;;9.80;3.20;;;22.70;99.90;;;;;;5038899;28;20574;-73
2023/06/27 12:48:42;;;;;;;11.50;4.13;;;22.40;99.90;;;;;;5056791;28;20186;-73